Time;durP1;ratioP1;P1;durP2;ratioP2;P2;SDS_P1;SDS_P2;PMS_P1;PMS_P2;Temp;Humidity;BMP_temperature;BMP_pressure;BME280_temperature;BME280_humidity;BME280_pressure;Samples;Min_cycle;Max_cycle;Signal;HPM_P1;HPM_P2
2023/01/09 00:00:25;;;;;;;36.43;22.50;;;7.80;99.90;;;;;;10054366;29;20251;-86
2023/01/09 00:05:27;;;;;;;31.00;19.83;;;7.80;99.90;;;;;;10060141;29;20677;-86
2023/01/09 00:10:30;;;;;;;35.97;23.00;;;7.90;99.90;;;;;;10062609;29;20217;-86
2023/01/09 00:15:32;;;;;;;33.37;20.00;;;8.30;99.90;;;;;;10058950;29;20693;-86
2023/01/09 00:20:35;;;;;;;22.47;14.93;;;8.20;99.90;;;;;;10046307;29;20205;-86
2023/01/09 00:25:38;;;;;;;37.17;21.80;;;7.70;99.90;;;;;;10061660;29;20302;-86
2023/01/09 00:30:43;;;;;;;35.57;21.63;;;7.60;99.90;;;;;;10061774;29;20230;-86
2023/01/09 00:35:46;;;;;;;34.67;20.33;;;7.10;99.90;;;;;;10060552;29;20274;-86
2023/01/09 00:40:50;;;;;;;31.40;20.67;;;6.90;99.90;;;;;;10062167;29;20221;-86
2023/01/09 00:45:52;;;;;;;35.53;19.53;;;7.00;99.90;;;;;;10044488;29;20225;-86
2023/01/09 00:50:59;;;;;;;33.17;22.07;;;6.70;99.90;;;;;;10059966;29;20279;-86
2023/01/09 00:56:06;;;;;;;26.73;16.87;;;6.60;99.90;;;;;;10060984;29;20265;-87
2023/01/09 01:01:09;;;;;;;29.27;18.67;;;6.70;99.90;;;;;;10060061;29;20747;-87
2023/01/09 01:11:33;;;;;;;37.17;22.30;;;7.00;99.90;;;;;;10058439;29;20277;-87
2023/01/09 01:16:36;;;;;;;38.27;23.63;;;6.80;99.90;;;;;;10056287;29;20241;-87
2023/01/09 01:21:39;;;;;;;38.80;23.70;;;6.80;99.90;;;;;;10056782;29;20638;-87
2023/01/09 01:26:41;;;;;;;36.83;22.70;;;6.70;99.90;;;;;;10038490;29;20253;-87
2023/01/09 01:31:44;;;;;;;37.40;23.07;;;6.60;99.90;;;;;;10054408;29;20261;-87
2023/01/09 01:36:46;;;;;;;29.47;18.97;;;6.70;99.90;;;;;;10016493;29;20628;-87
2023/01/09 01:41:49;;;;;;;36.33;23.80;;;6.80;99.90;;;;;;10052391;29;20714;-87
2023/01/09 01:46:54;;;;;;;42.33;23.33;;;6.90;99.90;;;;;;10054296;29;20245;-86
2023/01/09 01:51:58;;;;;;;30.40;19.73;;;7.10;99.90;;;;;;10037391;29;20256;-86
2023/01/09 01:57:02;;;;;;;36.03;20.97;;;7.80;99.90;;;;;;10056275;29;20306;-87
2023/01/09 02:02:06;;;;;;;39.90;24.73;;;7.30;99.90;;;;;;10056718;29;20242;-87
2023/01/09 02:07:09;;;;;;;29.83;19.23;;;6.90;99.90;;;;;;10054668;29;20245;-86
2023/01/09 02:12:22;;;;;;;35.30;22.07;;;7.10;99.90;;;;;;10052782;29;20273;-86
2023/01/09 02:17:40;;;;;;;26.70;17.47;;;7.80;99.90;;;;;;10052008;29;20323;-86
2023/01/09 02:22:48;;;;;;;29.40;17.90;;;8.40;99.90;;;;;;10052430;29;20240;-86
2023/01/09 02:27:59;;;;;;;40.97;20.90;;;8.90;99.90;;;;;;10050948;29;20266;-86
2023/01/09 02:33:23;;;;;;;32.43;20.17;;;8.30;99.90;;;;;;10051362;29;20253;-87
2023/01/09 02:38:54;;;;;;;35.77;23.63;;;8.50;99.90;;;;;;10035148;29;20225;-86
2023/01/09 02:44:16;;;;;;;27.47;18.37;;;8.20;99.90;;;;;;10035259;29;20249;-86
2023/01/09 02:49:18;;;;;;;39.40;23.57;;;9.20;99.90;;;;;;10051426;29;20241;-86
2023/01/09 02:54:41;;;;;;;35.90;21.47;;;9.10;99.90;;;;;;10029692;29;20734;-87
2023/01/09 02:59:55;;;;;;;38.30;23.63;;;8.50;99.90;;;;;;10033215;29;20269;-87
2023/01/09 03:05:10;;;;;;;35.80;21.77;;;7.70;99.90;;;;;;10051443;29;20241;-87
2023/01/09 03:10:25;;;;;;;39.57;22.83;;;6.80;99.90;;;;;;10051306;29;20265;-86
2023/01/09 03:15:33;;;;;;;33.93;22.90;;;6.20;99.90;;;;;;10050804;29;20268;-86
2023/01/09 03:20:37;;;;;;;31.83;21.00;;;5.90;99.90;;;;;;10049771;29;20237;-86
2023/01/09 03:25:40;;;;;;;23.27;16.33;;;7.00;99.90;;;;;;10034294;29;20246;-86
2023/01/09 03:30:42;;;;;;;22.67;16.07;;;7.80;99.90;;;;;;10050457;29;20293;-86
2023/01/09 03:35:45;;;;;;;26.10;16.60;;;8.30;99.90;;;;;;10050248;29;20245;-86
2023/01/09 03:40:48;;;;;;;30.13;18.43;;;8.60;99.90;;;;;;10038462;29;20677;-86
2023/01/09 03:45:50;;;;;;;33.20;22.07;;;8.50;99.90;;;;;;10057450;29;20253;-86
2023/01/09 03:50:54;;;;;;;28.90;17.17;;;6.80;99.90;;;;;;10057878;29;20267;-87
2023/01/09 03:55:57;;;;;;;34.70;21.30;;;7.50;99.90;;;;;;10056115;29;20686;-87
2023/01/09 04:01:02;;;;;;;29.67;19.93;;;7.20;99.90;;;;;;10040334;29;20284;-86
2023/01/09 04:06:06;;;;;;;24.57;15.70;;;7.50;99.90;;;;;;10057708;29;20659;-86
2023/01/09 04:11:08;;;;;;;30.73;20.10;;;8.10;99.90;;;;;;10056000;29;20309;-86
2023/01/09 04:16:11;;;;;;;35.47;21.10;;;7.80;99.90;;;;;;10056485;29;20241;-86
2023/01/09 04:21:13;;;;;;;34.60;22.90;;;6.70;99.90;;;;;;10056601;29;20262;-86
2023/01/09 04:26:16;;;;;;;29.60;18.87;;;6.20;99.90;;;;;;10057189;29;20298;-85
2023/01/09 04:31:18;;;;;;;33.87;22.17;;;5.70;99.90;;;;;;10056175;29;20321;-86
2023/01/09 04:36:21;;;;;;;29.80;20.13;;;5.40;99.90;;;;;;10038711;29;20230;-86
2023/01/09 04:46:45;;;;;;;64.67;36.27;;;4.90;99.90;;;;;;10050927;29;20238;-86
2023/01/09 04:51:47;;;;;;;31.30;18.97;;;6.40;99.90;;;;;;10029729;29;20309;-86
2023/01/09 04:56:50;;;;;;;32.83;22.93;;;7.30;99.90;;;;;;10055710;29;20289;-86
2023/01/09 05:01:54;;;;;;;37.73;24.93;;;7.60;99.90;;;;;;10054334;29;20273;-86
2023/01/09 05:06:57;;;;;;;39.30;25.33;;;7.30;99.90;;;;;;10053751;29;20372;-86
2023/01/09 05:11:59;;;;;;;37.03;24.77;;;6.80;99.90;;;;;;10053835;29;20670;-85
2023/01/09 05:17:03;;;;;;;28.50;19.87;;;5.90;99.90;;;;;;10054297;29;20718;-85
2023/01/09 05:22:05;;;;;;;32.67;21.97;;;6.10;99.90;;;;;;10054504;29;20293;-85
2023/01/09 05:27:08;;;;;;;34.97;19.73;;;6.90;99.90;;;;;;10055140;29;20246;-85
2023/01/09 05:32:10;;;;;;;29.93;20.03;;;7.70;99.90;;;;;;10053087;29;20597;-85
2023/01/09 05:37:13;;;;;;;31.33;20.37;;;8.20;99.90;;;;;;10053514;29;20241;-85
2023/01/09 05:42:15;;;;;;;31.77;22.53;;;8.10;99.90;;;;;;10036738;29;20245;-85
2023/01/09 05:47:18;;;;;;;28.73;18.40;;;8.10;99.90;;;;;;10053725;29;20680;-85
2023/01/09 05:52:21;;;;;;;33.17;22.00;;;8.10;99.90;;;;;;10053460;29;20676;-85
2023/01/09 05:57:23;;;;;;;34.87;22.03;;;8.00;99.90;;;;;;10052394;29;20242;-85
2023/01/09 06:02:26;;;;;;;29.37;18.53;;;7.40;99.90;;;;;;10052576;29;20320;-85
2023/01/09 06:07:28;;;;;;;35.13;22.70;;;6.80;99.90;;;;;;10052280;29;20273;-85
2023/01/09 06:12:31;;;;;;;40.43;24.87;;;6.50;99.90;;;;;;10050281;29;20265;-85
2023/01/09 06:17:33;;;;;;;40.87;27.83;;;6.20;99.90;;;;;;10052345;29;20563;-85
2023/01/09 06:22:36;;;;;;;33.00;21.50;;;6.80;99.90;;;;;;10052225;29;20281;-85
2023/01/09 06:27:38;;;;;;;32.00;20.93;;;7.40;99.90;;;;;;10043245;29;20241;-85
2023/01/09 06:32:41;;;;;;;34.53;22.07;;;7.80;99.90;;;;;;10051532;29;20261;-87
2023/01/09 06:37:43;;;;;;;52.37;30.53;;;8.10;99.90;;;;;;10050575;29;20233;-85
2023/01/09 06:42:48;;;;;;;77.40;40.47;;;7.80;99.90;;;;;;10050674;29;20257;-85
2023/01/09 06:47:50;;;;;;;78.67;41.53;;;9.20;99.90;;;;;;10057064;29;20214;-85
2023/01/09 06:52:53;;;;;;;71.63;40.90;;;8.50;99.90;;;;;;10033996;29;20261;-85
2023/01/09 06:57:55;;;;;;;74.80;41.17;;;9.80;99.90;;;;;;10049010;29;20245;-85
2023/01/09 07:02:58;;;;;;;56.30;35.43;;;9.30;99.90;;;;;;10048199;29;20305;-86
2023/01/09 07:08:00;;;;;;;59.67;35.60;;;7.80;99.90;;;;;;10033973;29;20229;-85
2023/01/09 07:13:03;;;;;;;62.87;36.87;;;7.60;99.90;;;;;;10032797;29;20264;-85
2023/01/09 07:18:05;;;;;;;57.33;36.37;;;7.90;99.90;;;;;;10056505;29;20273;-85
2023/01/09 07:23:11;;;;;;;68.23;37.50;;;8.80;99.90;;;;;;10058437;29;20253;-86
2023/01/09 07:28:14;;;;;;;57.93;36.83;;;9.00;99.90;;;;;;10042536;29;20297;-85
2023/01/09 07:33:16;;;;;;;65.87;37.80;;;8.80;99.90;;;;;;10058295;29;20321;-85
2023/01/09 07:38:19;;;;;;;72.30;39.80;;;8.80;99.90;;;;;;10059186;29;20766;-85
2023/01/09 07:43:21;;;;;;;61.67;37.50;;;9.00;99.90;;;;;;10058173;29;20271;-85
2023/01/09 07:48:24;;;;;;;60.57;37.23;;;8.70;99.90;;;;;;10057769;29;20293;-85
2023/01/09 07:53:27;;;;;;;61.33;36.93;;;8.80;99.90;;;;;;10058925;29;20717;-84
2023/01/09 07:58:29;;;;;;;60.27;39.43;;;9.00;99.90;;;;;;10058345;29;20237;-85
2023/01/09 08:03:34;;;;;;;59.80;37.53;;;8.50;99.90;;;;;;10039267;29;20273;-84
2023/01/09 08:08:37;;;;;;;64.00;37.53;;;7.80;99.90;;;;;;10041715;29;20249;-84
2023/01/09 08:13:39;;;;;;;59.27;36.70;;;7.80;99.90;;;;;;10034566;29;20732;-85
2023/01/09 08:18:42;;;;;;;62.83;35.93;;;8.40;99.90;;;;;;10018980;29;20294;-85
2023/01/09 08:23:45;;;;;;;63.93;38.63;;;9.10;99.90;;;;;;10033611;29;20642;-84
2023/01/09 08:28:47;;;;;;;62.10;38.67;;;9.30;99.90;;;;;;10054623;29;20237;-84
2023/01/09 08:33:50;;;;;;;67.33;39.03;;;8.80;99.90;;;;;;10055784;29;20296;-85
2023/01/09 08:38:52;;;;;;;59.53;36.47;;;8.90;99.90;;;;;;10048019;29;20290;-85
2023/01/09 08:49:16;;;;;;;53.13;31.50;;;8.20;99.90;;;;;;10054330;29;20240;-85
2023/01/09 08:54:19;;;;;;;64.33;41.57;;;;;;;;;;10032159;29;20390;-85
2023/01/09 08:59:22;;;;;;;66.40;40.77;;;5.90;99.90;;;;;;10051687;29;20329;-85
2023/01/09 09:04:24;;;;;;;65.63;38.63;;;7.00;99.90;;;;;;10036462;29;20296;-85
2023/01/09 09:09:27;;;;;;;51.03;32.20;;;6.90;99.90;;;;;;10033805;29;20914;-85
2023/01/09 09:19:50;;;;;;;53.57;31.50;;;7.70;99.90;;;;;;10044172;29;20241;-86
2023/01/09 09:24:53;;;;;;;47.67;30.33;;;7.70;99.90;;;;;;10049572;29;20245;-85
2023/01/09 09:29:55;;;;;;;57.30;36.33;;;7.80;99.90;;;;;;10034950;29;21200;-84
2023/01/09 09:34:58;;;;;;;49.67;31.20;;;7.60;99.90;;;;;;10047360;29;20946;-84
2023/01/09 09:40:01;;;;;;;45.90;27.40;;;7.60;99.90;;;;;;10053425;29;20703;-84
2023/01/09 09:45:43;;;;;;;51.40;33.73;;;8.50;99.90;;;;;;10052554;29;20237;-84
2023/01/09 09:51:33;;;;;;;57.37;33.50;;;8.60;99.90;;;;;;10052812;29;20679;-85
2023/01/09 09:56:46;;;;;;;56.07;34.37;;;8.70;99.90;;;;;;10033068;29;20301;-85
2023/01/09 10:01:55;;;;;;;59.47;35.80;;;8.70;99.90;;;;;;10052266;29;20672;-85
2023/01/09 10:07:05;;;;;;;58.47;38.97;;;8.60;99.90;;;;;;10051297;29;20301;-84
2023/01/09 10:12:26;;;;;;;42.97;27.60;;;8.40;99.90;;;;;;10035983;29;20249;-84
2023/01/09 10:18:06;;;;;;;52.23;31.97;;;9.20;99.90;;;;;;10052050;29;20245;-85
2023/01/09 10:23:46;;;;;;;42.30;27.80;;;9.60;99.90;;;;;;10052916;29;20241;-84
2023/01/09 10:29:20;;;;;;;57.17;35.93;;;9.90;99.90;;;;;;10016639;29;20669;-84
2023/01/09 10:34:29;;;;;;;46.90;30.40;;;8.80;99.90;;;;;;10056042;29;20261;-85
2023/01/09 10:39:55;;;;;;;43.40;27.47;;;8.70;99.90;;;;;;10052227;29;20298;-85
2023/01/09 10:45:22;;;;;;;59.97;36.40;;;9.20;99.90;;;;;;10034947;29;21122;-84
2023/01/09 10:50:34;;;;;;;51.83;31.83;;;9.30;99.90;;;;;;10034486;29;20241;-84
2023/01/09 10:55:47;;;;;;;42.73;28.43;;;9.00;99.90;;;;;;10051303;29;20260;-84
2023/01/09 11:00:50;;;;;;;54.03;34.03;;;9.20;99.90;;;;;;10034812;29;20336;-84
2023/01/09 11:05:58;;;;;;;50.83;32.87;;;8.30;99.90;;;;;;10049446;29;20249;-84
2023/01/09 11:11:02;;;;;;;51.80;31.83;;;8.20;99.90;;;;;;10033651;29;20253;-84
2023/01/09 11:16:16;;;;;;;57.60;35.17;;;8.20;99.90;;;;;;10050644;29;20691;-85
2023/01/09 11:21:27;;;;;;;51.77;31.97;;;7.70;99.90;;;;;;10051014;29;20696;-85
2023/01/09 11:26:31;;;;;;;45.33;28.80;;;7.70;99.90;;;;;;10049983;29;20278;-84
2023/01/09 11:31:34;;;;;;;37.07;24.47;;;7.80;99.90;;;;;;10051015;29;20301;-84
2023/01/09 11:36:37;;;;;;;49.73;31.53;;;8.20;99.90;;;;;;10064025;29;20264;-84
2023/01/09 11:41:40;;;;;;;45.73;30.27;;;8.30;99.90;;;;;;10048768;29;20241;-83
2023/01/09 11:46:43;;;;;;;52.43;32.30;;;8.30;99.90;;;;;;10049131;29;20249;-84
2023/01/09 11:52:03;;;;;;;44.90;26.07;;;8.10;99.90;;;;;;10049357;29;20241;-84
2023/01/09 11:57:10;;;;;;;52.57;32.00;;;8.30;99.90;;;;;;10048333;29;20304;-84
2023/01/09 12:03:05;;;;;;;51.70;32.77;;;8.00;99.90;;;;;;10052672;29;20269;-84
2023/01/09 12:08:39;;;;;;;50.33;33.87;;;7.90;99.90;;;;;;10025987;29;20233;-84
2023/01/09 12:13:41;;;;;;;53.67;35.27;;;7.60;99.90;;;;;;10054256;29;20331;-85
2023/01/09 12:19:03;;;;;;;53.47;33.60;;;7.70;99.90;;;;;;10054507;29;20262;-85
2023/01/09 12:25:00;;;;;;;48.40;32.50;;;7.50;99.90;;;;;;10039211;29;20237;-84
2023/01/09 12:31:03;;;;;;;59.10;34.83;;;7.60;99.90;;;;;;9932029;29;20246;-84
2023/01/09 12:36:23;;;;;;;52.40;34.10;;;7.40;99.90;;;;;;9934286;29;20389;-84
2023/01/09 12:41:42;;;;;;;51.83;33.27;;;7.40;99.90;;;;;;9935405;29;20248;-84
2023/01/09 12:47:11;;;;;;;62.60;38.97;;;7.50;99.90;;;;;;9933279;29;20247;-84
2023/01/09 12:52:22;;;;;;;56.43;37.43;;;7.60;99.90;;;;;;9921176;29;20305;-84
2023/01/09 12:57:34;;;;;;;62.47;39.10;;;7.30;99.90;;;;;;9936075;29;20330;-83
2023/01/09 13:02:44;;;;;;;60.67;39.20;;;7.50;99.90;;;;;;9998657;29;20265;-83
2023/01/09 13:07:53;;;;;;;68.03;39.47;;;7.20;99.90;;;;;;10054017;29;20253;-83
2023/01/09 13:12:58;;;;;;;72.07;41.93;;;7.20;99.90;;;;;;10050941;29;20767;-83
2023/01/09 13:18:25;;;;;;;61.80;39.30;;;7.40;99.90;;;;;;10044585;29;20226;-83
2023/01/09 13:23:51;;;;;;;68.77;41.30;;;7.30;99.90;;;;;;10053818;29;20249;-83
2023/01/09 13:29:03;;;;;;;72.10;42.73;;;7.50;99.90;;;;;;10053017;29;20249;-84
2023/01/09 13:34:13;;;;;;;74.57;43.83;;;7.40;99.90;;;;;;10036795;29;20788;-84
2023/01/09 13:39:25;;;;;;;77.60;46.33;;;7.50;99.90;;;;;;10046441;29;20738;-84
2023/01/09 13:44:28;;;;;;;67.43;42.50;;;7.60;99.90;;;;;;10051028;29;20794;-84
2023/01/09 13:49:42;;;;;;;68.00;44.13;;;7.60;99.90;;;;;;10052392;29;20245;-84
2023/01/09 13:54:50;;;;;;;74.67;43.63;;;7.20;99.90;;;;;;10052259;29;20273;-85
2023/01/09 13:59:57;;;;;;;76.47;44.57;;;7.50;99.90;;;;;;10045796;29;20269;-86
2023/01/09 14:05:01;;;;;;;64.23;41.03;;;7.50;99.90;;;;;;10053480;29;20240;-90
2023/01/09 14:10:07;;;;;;;69.40;40.60;;;9.20;99.90;;;;;;10054668;29;20241;-89
2023/01/09 14:15:36;;;;;;;65.13;39.43;;;9.50;99.90;;;;;;10035949;29;20798;-90
2023/01/09 14:20:46;;;;;;;65.90;40.03;;;8.80;99.90;;;;;;10052826;29;20297;-89
2023/01/09 14:25:51;;;;;;;61.27;37.67;;;8.10;99.90;;;;;;10052555;29;20241;-89
2023/01/09 14:30:53;;;;;;;57.83;35.93;;;8.80;99.90;;;;;;10050649;29;20987;-90
2023/01/09 14:36:23;;;;;;;64.07;39.27;;;8.30;99.90;;;;;;10052128;29;20326;-89
2023/01/09 14:47:28;;;;;;;67.63;41.67;;;8.00;99.90;;;;;;10052159;29;20249;-90
2023/01/09 14:52:43;;;;;;;74.73;46.83;;;7.40;99.90;;;;;;10052029;29;20695;-90
2023/01/09 14:57:50;;;;;;;69.67;42.33;;;7.10;99.90;;;;;;10051350;29;20707;-89
2023/01/09 15:02:53;;;;;;;71.17;42.43;;;7.10;99.90;;;;;;10034920;29;20791;-90
2023/01/09 15:08:02;;;;;;;59.13;33.90;;;7.40;99.90;;;;;;10050593;29;20241;-87
2023/01/09 15:13:12;;;;;;;61.90;38.07;;;7.60;99.90;;;;;;10047792;29;20285;-85
2023/01/09 15:18:28;;;;;;;67.97;36.73;;;8.10;99.90;;;;;;10035486;29;20261;-84
2023/01/09 15:23:31;;;;;;;62.03;38.67;;;8.60;99.90;;;;;;10047835;29;20258;-85
2023/01/09 15:28:41;;;;;;;59.43;37.10;;;9.20;99.90;;;;;;10050375;29;20245;-84
2023/01/09 15:33:46;;;;;;;60.93;35.60;;;9.70;99.90;;;;;;10032423;29;20225;-84
2023/01/09 15:38:50;;;;;;;63.20;33.63;;;10.40;99.90;;;;;;10055554;29;20237;-84
2023/01/09 15:43:53;;;;;;;59.90;33.20;;;10.90;99.90;;;;;;10052487;29;20289;-83
2023/01/09 15:48:55;;;;;;;56.50;34.53;;;11.40;99.90;;;;;;10056787;29;20257;-84
2023/01/09 15:53:59;;;;;;;53.47;33.27;;;11.90;99.90;;;;;;10057983;29;20305;-84
2023/01/09 15:59:21;;;;;;;56.80;36.23;;;11.50;99.90;;;;;;10056486;29;20622;-84
2023/01/09 16:04:24;;;;;;;66.77;43.20;;;11.30;99.90;;;;;;10040984;29;20645;-84
2023/01/09 16:09:29;;;;;;;46.73;29.23;;;10.60;99.90;;;;;;10057389;29;20234;-84
2023/01/09 16:14:37;;;;;;;49.40;30.67;;;10.20;99.90;;;;;;10057524;29;20245;-84
2023/01/09 16:19:39;;;;;;;48.63;28.50;;;11.40;99.90;;;;;;10039167;29;20767;-84
2023/01/09 16:24:42;;;;;;;46.43;29.23;;;12.20;99.90;;;;;;10055939;29;20254;-85
2023/01/09 16:29:49;;;;;;;44.73;28.17;;;12.50;99.90;;;;;;10081617;29;20244;-85
2023/01/09 16:35:01;;;;;;;47.10;29.40;;;12.50;99.90;;;;;;10062838;29;20903;-85
2023/01/09 16:46:44;;;;;;;43.23;26.43;;;12.50;99.90;;;;;;10078460;29;20209;-84
2023/01/09 16:51:50;;;;;;;41.83;26.57;;;13.00;99.90;;;;;;10059195;29;20229;-85
2023/01/09 16:56:53;;;;;;;44.67;28.20;;;13.20;99.90;;;;;;10056982;29;20257;-85
2023/01/09 17:01:56;;;;;;;45.40;27.37;;;13.00;99.90;;;;;;10054161;29;20759;-85
2023/01/09 17:06:59;;;;;;;38.47;25.67;;;;;;;;;;10054174;29;20699;-84
2023/01/09 17:12:01;;;;;;;41.10;26.67;;;13.20;99.90;;;;;;10037323;29;20239;-85
2023/01/09 17:17:08;;;;;;;39.10;25.30;;;13.10;99.90;;;;;;10053628;29;20319;-85
2023/01/09 17:22:10;;;;;;;39.23;24.07;;;13.00;99.90;;;;;;10053698;29;20341;-85
2023/01/09 17:32:34;;;;;;;35.17;23.77;;;12.80;99.90;;;;;;10054984;29;20302;-85
2023/01/09 17:37:37;;;;;;;36.23;24.47;;;12.80;99.90;;;;;;10061438;29;20305;-85
2023/01/09 17:42:40;;;;;;;37.80;24.60;;;12.90;99.90;;;;;;10034909;29;20301;-85
2023/01/09 17:47:45;;;;;;;46.87;27.33;;;12.60;99.90;;;;;;10043071;29;20237;-85
2023/01/09 17:52:49;;;;;;;47.90;30.80;;;;;;;;;;10040373;29;20770;-85
2023/01/09 17:57:52;;;;;;;48.07;30.30;;;7.70;99.90;;;;;;10051596;29;20273;-84
2023/01/09 18:02:56;;;;;;;48.27;32.33;;;6.80;99.90;;;;;;10064814;29;20335;-85
2023/01/09 18:07:58;;;;;;;49.37;32.13;;;6.30;99.90;;;;;;10068420;29;20245;-84
2023/01/09 18:13:01;;;;;;;49.20;31.23;;;5.90;99.90;;;;;;10060673;29;20249;-84
2023/01/09 18:18:04;;;;;;;51.10;29.37;;;5.70;99.90;;;;;;10034794;29;20720;-84
2023/01/09 18:23:09;;;;;;;28.90;19.37;;;7.00;99.90;;;;;;10060092;29;20750;-83
2023/01/09 18:28:14;;;;;;;29.90;19.30;;;9.30;99.90;;;;;;10061401;29;20238;-83
2023/01/09 18:33:16;;;;;;;28.27;18.57;;;10.50;99.90;;;;;;10046927;29;20745;-83
2023/01/09 18:38:19;;;;;;;30.63;19.83;;;10.70;99.90;;;;;;10042782;29;20268;-84
2023/01/09 18:43:21;;;;;;;30.57;19.07;;;11.30;99.90;;;;;;10048290;29;20309;-83
2023/01/09 18:48:25;;;;;;;29.80;17.93;;;11.60;99.90;;;;;;10046611;29;20313;-83
2023/01/09 18:53:27;;;;;;;32.77;17.23;;;12.20;99.90;;;;;;10041408;29;20249;-84
2023/01/09 18:58:32;;;;;;;25.63;16.63;;;12.20;99.90;;;;;;10018103;29;20319;-83
2023/01/09 19:03:35;;;;;;;24.57;15.93;;;12.40;99.90;;;;;;10031878;29;20286;-84
2023/01/09 19:08:37;;;;;;;22.37;14.90;;;12.60;99.90;;;;;;10023679;29;20242;-83
2023/01/09 19:13:40;;;;;;;25.10;15.90;;;;;;;;;;10057875;29;20249;-83
2023/01/09 19:18:43;;;;;;;24.00;15.17;;;12.80;99.90;;;;;;10063272;29;20260;-84
2023/01/09 19:23:46;;;;;;;21.73;15.83;;;12.40;99.90;;;;;;10046918;29;20237;-84
2023/01/09 19:28:50;;;;;;;25.03;16.87;;;12.00;99.90;;;;;;10075135;29;20254;-84
2023/01/09 19:33:53;;;;;;;28.93;17.07;;;11.60;99.90;;;;;;10054511;29;20233;-84
2023/01/09 19:38:57;;;;;;;26.67;16.73;;;11.30;99.90;;;;;;10050636;29;20264;-84
2023/01/09 19:44:00;;;;;;;19.97;15.23;;;11.10;99.90;;;;;;10062437;29;20241;-84
2023/01/09 19:49:03;;;;;;;20.07;14.80;;;11.00;99.90;;;;;;10060738;29;20285;-84
2023/01/09 19:54:08;;;;;;;26.20;15.57;;;10.20;99.90;;;;;;10062753;29;20646;-85
2023/01/09 19:59:13;;;;;;;22.13;15.30;;;9.80;99.90;;;;;;10064936;29;20789;-84
2023/01/09 20:04:16;;;;;;;22.07;15.53;;;10.10;99.90;;;;;;10061677;29;20257;-84
2023/01/09 20:09:26;;;;;;;28.47;17.27;;;10.40;99.90;;;;;;10046971;29;20671;-84
2023/01/09 20:14:28;;;;;;;25.70;17.57;;;10.00;99.90;;;;;;10069773;29;20301;-84
2023/01/09 20:19:32;;;;;;;27.10;18.90;;;10.20;99.90;;;;;;10058838;29;20325;-85
2023/01/09 20:24:35;;;;;;;33.87;21.83;;;9.90;99.90;;;;;;10063435;29;20221;-85
2023/01/09 20:29:38;;;;;;;32.07;19.87;;;10.20;99.90;;;;;;10055161;29;20245;-85
2023/01/09 20:34:43;;;;;;;24.37;17.17;;;10.30;99.90;;;;;;10055519;29;20230;-85
2023/01/09 20:39:46;;;;;;;32.20;19.67;;;11.00;99.90;;;;;;10043536;29;20233;-84
2023/01/09 20:44:48;;;;;;;29.13;19.27;;;10.70;99.90;;;;;;10085860;29;20635;-85
2023/01/09 20:49:51;;;;;;;31.43;19.93;;;10.30;99.90;;;;;;10053200;29;20638;-85
2023/01/09 20:54:54;;;;;;;26.43;17.87;;;10.50;99.90;;;;;;10038929;29;20245;-86
2023/01/09 20:59:56;;;;;;;30.60;18.97;;;10.30;99.90;;;;;;10054658;29;20265;-86
2023/01/09 21:04:59;;;;;;;39.07;20.83;;;9.80;99.90;;;;;;10056339;29;20233;-85
2023/01/09 21:10:01;;;;;;;33.03;19.97;;;9.10;99.90;;;;;;10044825;29;20286;-84
2023/01/09 21:15:08;;;;;;;35.40;21.30;;;9.40;99.90;;;;;;10053491;29;20230;-84
2023/01/09 21:20:13;;;;;;;33.60;22.50;;;9.70;99.90;;;;;;10067575;29;20250;-84
2023/01/09 21:25:16;;;;;;;39.97;23.00;;;8.70;99.90;;;;;;10072613;29;20232;-84
2023/01/09 21:30:18;;;;;;;35.43;20.13;;;8.20;99.90;;;;;;10054450;29;20787;-84
2023/01/09 21:35:21;;;;;;;36.10;22.93;;;8.20;99.90;;;;;;10073378;29;20306;-84
2023/01/09 21:40:23;;;;;;;35.07;21.10;;;8.00;99.90;;;;;;10052197;29;20250;-85
2023/01/09 21:50:47;;;;;;;67.87;37.87;;;7.50;99.90;;;;;;10053950;29;20675;-85
2023/01/09 21:55:50;;;;;;;114.90;65.07;;;7.80;99.90;;;;;;10057368;29;20284;-86
2023/01/09 22:00:59;;;;;;;128.60;73.37;;;;;;;;;;10078204;29;20260;-87
2023/01/09 22:06:39;;;;;;;121.77;70.23;;;3.30;99.90;;;;;;10077577;29;20678;-87
2023/01/09 22:12:21;;;;;;;133.53;71.63;;;;;;;;;;10033959;29;20229;-86
2023/01/09 22:17:24;;;;;;;107.87;59.17;;;;;;;;;;10050243;29;20306;-86
2023/01/09 22:22:26;;;;;;;46.73;25.10;;;2.90;99.90;;;;;;10066003;29;20228;-86
2023/01/09 22:27:31;;;;;;;60.10;31.70;;;3.60;99.90;;;;;;10057571;29;20236;-85
2023/01/09 22:38:41;;;;;;;73.30;43.03;;;5.70;99.90;;;;;;9904096;29;20900;-86
2023/01/09 22:43:43;;;;;;;85.93;44.83;;;5.30;99.90;;;;;;9906948;29;20956;-86
2023/01/09 22:48:46;;;;;;;82.27;43.50;;;5.10;99.90;;;;;;9910073;29;20363;-86
2023/01/09 22:53:49;;;;;;;62.47;37.73;;;5.20;99.90;;;;;;9912216;29;20251;-86
2023/01/09 22:58:54;;;;;;;50.47;30.20;;;5.60;99.90;;;;;;9912157;29;20326;-86
2023/01/09 23:03:56;;;;;;;57.30;32.93;;;5.40;99.90;;;;;;9887595;29;20766;-86
2023/01/09 23:08:59;;;;;;;55.03;31.07;;;5.30;99.90;;;;;;9892678;30;20307;-86
2023/01/09 23:14:01;;;;;;;49.60;30.20;;;5.50;99.90;;;;;;9976960;29;20320;-86
2023/01/09 23:19:13;;;;;;;47.13;29.03;;;5.50;99.90;;;;;;10033211;29;20273;-86
2023/01/09 23:24:17;;;;;;;53.33;30.67;;;5.60;99.90;;;;;;10061827;29;20232;-86
2023/01/09 23:29:20;;;;;;;51.27;30.90;;;5.60;99.90;;;;;;10053429;29;20710;-86
2023/01/09 23:34:29;;;;;;;53.53;31.47;;;5.60;99.90;;;;;;10053912;29;20241;-86
2023/01/09 23:39:35;;;;;;;56.70;32.40;;;5.70;99.90;;;;;;10047416;29;20320;-87
2023/01/09 23:44:37;;;;;;;40.23;25.10;;;5.80;99.90;;;;;;10066611;29;20297;-86
2023/01/09 23:49:40;;;;;;;48.43;27.07;;;6.30;99.90;;;;;;10059016;29;20659;-87
2023/01/09 23:54:42;;;;;;;53.33;30.23;;;6.80;99.90;;;;;;10051086;29;20229;-87
2023/01/09 23:59:45;;;;;;;51.10;28.77;;;6.20;99.90;;;;;;10040465;29;20273;-87
